sensor_id;sensor_type;location;lat;lon;timestamp;P1;durP1;ratioP1;P2;durP2;ratioP2
18399;SDS011;9326;49.468;11.008;2022-11-15T00:02:06;11.33;;;10.13;;
18399;SDS011;9326;49.468;11.008;2022-11-15T00:04:33;11.63;;;9.37;;
18399;SDS011;9326;49.468;11.008;2022-11-15T00:07:00;11.53;;;9.73;;
18399;SDS011;9326;49.468;11.008;2022-11-15T00:09:27;11.43;;;10.00;;
18399;SDS011;9326;49.468;11.008;2022-11-15T00:11:54;11.33;;;9.13;;
18399;SDS011;9326;49.468;11.008;2022-11-15T00:14:23;10.80;;;8.60;;
18399;SDS011;9326;49.468;11.008;2022-11-15T00:16:50;11.77;;;9.33;;
18399;SDS011;9326;49.468;11.008;2022-11-15T00:19:17;10.83;;;9.40;;
18399;SDS011;9326;49.468;11.008;2022-11-15T00:21:44;11.27;;;10.07;;
18399;SDS011;9326;49.468;11.008;2022-11-15T00:24:11;12.23;;;9.87;;
18399;SDS011;9326;49.468;11.008;2022-11-15T00:26:38;10.73;;;9.53;;
18399;SDS011;9326;49.468;11.008;2022-11-15T00:29:05;11.87;;;8.90;;
18399;SDS011;9326;49.468;11.008;2022-11-15T00:31:34;9.83;;;8.83;;
18399;SDS011;9326;49.468;11.008;2022-11-15T00:34:01;9.10;;;8.17;;
18399;SDS011;9326;49.468;11.008;2022-11-15T00:36:28;9.60;;;8.60;;
18399;SDS011;9326;49.468;11.008;2022-11-15T00:38:55;12.83;;;9.40;;
18399;SDS011;9326;49.468;11.008;2022-11-15T00:41:22;15.77;;;9.57;;
18399;SDS011;9326;49.468;11.008;2022-11-15T00:43:49;14.50;;;9.93;;
18399;SDS011;9326;49.468;11.008;2022-11-15T00:46:16;11.47;;;9.73;;
18399;SDS011;9326;49.468;11.008;2022-11-15T00:48:44;15.87;;;9.63;;
18399;SDS011;9326;49.468;11.008;2022-11-15T00:51:11;11.13;;;9.20;;
18399;SDS011;9326;49.468;11.008;2022-11-15T00:53:38;11.20;;;9.50;;
18399;SDS011;9326;49.468;11.008;2022-11-15T00:56:05;11.53;;;9.20;;
18399;SDS011;9326;49.468;11.008;2022-11-15T00:58:32;11.70;;;9.33;;
18399;SDS011;9326;49.468;11.008;2022-11-15T06:02:14;12.20;;;9.60;;
18399;SDS011;9326;49.468;11.008;2022-11-15T06:04:42;12.47;;;9.10;;
18399;SDS011;9326;49.468;11.008;2022-11-15T06:07:09;12.40;;;9.53;;
18399;SDS011;9326;49.468;11.008;2022-11-15T06:09:36;12.20;;;9.53;;
18399;SDS011;9326;49.468;11.008;2022-11-15T06:12:03;11.27;;;9.50;;
18399;SDS011;9326;49.468;11.008;2022-11-15T06:14:31;12.10;;;9.60;;
18399;SDS011;9326;49.468;11.008;2022-11-15T06:16:58;17.43;;;10.67;;
18399;SDS011;9326;49.468;11.008;2022-11-15T06:19:26;13.13;;;9.97;;
18399;SDS011;9326;49.468;11.008;2022-11-15T06:21:57;15.10;;;9.90;;
18399;SDS011;9326;49.468;11.008;2022-11-15T06:24:24;16.17;;;10.80;;
18399;SDS011;9326;49.468;11.008;2022-11-15T06:26:52;20.57;;;11.10;;
18399;SDS011;9326;49.468;11.008;2022-11-15T06:29:19;14.30;;;10.23;;
18399;SDS011;9326;49.468;11.008;2022-11-15T06:31:47;14.87;;;10.50;;
18399;SDS011;9326;49.468;11.008;2022-11-15T06:34:14;14.83;;;9.53;;
18399;SDS011;9326;49.468;11.008;2022-11-15T06:36:43;15.37;;;9.70;;
18399;SDS011;9326;49.468;11.008;2022-11-15T06:39:10;15.07;;;10.37;;
18399;SDS011;9326;49.468;11.008;2022-11-15T06:41:43;15.80;;;10.13;;
18399;SDS011;9326;49.468;11.008;2022-11-15T06:44:10;14.33;;;9.90;;
18399;SDS011;9326;49.468;11.008;2022-11-15T06:46:37;15.07;;;10.93;;
18399;SDS011;9326;49.468;11.008;2022-11-15T06:49:04;13.63;;;9.57;;
18399;SDS011;9326;49.468;11.008;2022-11-15T06:51:31;14.63;;;10.07;;
18399;SDS011;9326;49.468;11.008;2022-11-15T06:54:00;14.23;;;11.00;;
18399;SDS011;9326;49.468;11.008;2022-11-15T06:56:27;13.33;;;10.53;;
18399;SDS011;9326;49.468;11.008;2022-11-15T06:58:55;14.40;;;10.70;;
18399;SDS011;9326;49.468;11.008;2022-11-15T07:01:22;18.47;;;11.10;;
18399;SDS011;9326;49.468;11.008;2022-11-15T07:03:49;15.80;;;11.53;;
18399;SDS011;9326;49.468;11.008;2022-11-15T07:06:16;18.63;;;11.17;;
18399;SDS011;9326;49.468;11.008;2022-11-15T07:08:43;17.07;;;11.07;;
18399;SDS011;9326;49.468;11.008;2022-11-15T07:11:12;17.30;;;11.10;;
18399;SDS011;9326;49.468;11.008;2022-11-15T07:13:39;15.60;;;10.90;;
18399;SDS011;9326;49.468;11.008;2022-11-15T07:16:07;15.07;;;11.40;;
18399;SDS011;9326;49.468;11.008;2022-11-15T07:18:35;18.97;;;10.70;;
18399;SDS011;9326;49.468;11.008;2022-11-15T07:21:03;15.53;;;10.77;;
18399;SDS011;9326;49.468;11.008;2022-11-15T07:23:30;14.70;;;10.70;;
18399;SDS011;9326;49.468;11.008;2022-11-15T07:25:58;14.90;;;11.13;;
18399;SDS011;9326;49.468;11.008;2022-11-15T07:28:27;14.87;;;11.37;;
18399;SDS011;9326;49.468;11.008;2022-11-15T07:30:54;14.43;;;11.07;;
18399;SDS011;9326;49.468;11.008;2022-11-15T07:33:21;15.50;;;11.23;;
18399;SDS011;9326;49.468;11.008;2022-11-15T07:35:48;15.50;;;10.70;;
18399;SDS011;9326;49.468;11.008;2022-11-15T07:38:16;13.50;;;10.60;;
18399;SDS011;9326;49.468;11.008;2022-11-15T07:40:44;13.03;;;10.60;;
18399;SDS011;9326;49.468;11.008;2022-11-15T07:43:12;14.60;;;11.27;;
18399;SDS011;9326;49.468;11.008;2022-11-15T07:45:42;14.00;;;11.20;;
18399;SDS011;9326;49.468;11.008;2022-11-15T07:48:10;13.57;;;11.80;;
18399;SDS011;9326;49.468;11.008;2022-11-15T07:50:37;14.60;;;10.90;;
18399;SDS011;9326;49.468;11.008;2022-11-15T07:53:07;14.00;;;10.90;;
18399;SDS011;9326;49.468;11.008;2022-11-15T07:55:34;13.57;;;10.03;;
18399;SDS011;9326;49.468;11.008;2022-11-15T07:58:02;10.40;;;9.20;;
18399;SDS011;9326;49.468;11.008;2022-11-15T08:00:29;13.30;;;9.20;;
18399;SDS011;9326;49.468;11.008;2022-11-15T08:03:04;13.00;;;8.60;;
18399;SDS011;9326;49.468;11.008;2022-11-15T08:05:32;12.63;;;8.43;;
18399;SDS011;9326;49.468;11.008;2022-11-15T08:07:59;12.43;;;8.60;;
18399;SDS011;9326;49.468;11.008;2022-11-15T08:10:26;15.27;;;9.47;;
18399;SDS011;9326;49.468;11.008;2022-11-15T08:12:57;12.47;;;8.73;;
18399;SDS011;9326;49.468;11.008;2022-11-15T08:15:24;12.03;;;9.10;;
18399;SDS011;9326;49.468;11.008;2022-11-15T08:17:54;11.53;;;9.30;;
18399;SDS011;9326;49.468;11.008;2022-11-15T08:20:23;12.37;;;9.30;;
18399;SDS011;9326;49.468;11.008;2022-11-15T08:22:52;13.53;;;9.07;;
18399;SDS011;9326;49.468;11.008;2022-11-15T08:25:20;11.37;;;8.70;;
18399;SDS011;9326;49.468;11.008;2022-11-15T08:27:47;12.43;;;9.03;;
18399;SDS011;9326;49.468;11.008;2022-11-15T08:30:16;12.33;;;8.90;;
18399;SDS011;9326;49.468;11.008;2022-11-15T08:32:57;9.43;;;8.30;;
18399;SDS011;9326;49.468;11.008;2022-11-15T08:35:33;11.03;;;8.07;;
18399;SDS011;9326;49.468;11.008;2022-11-15T08:38:00;11.23;;;8.30;;
18399;SDS011;9326;49.468;11.008;2022-11-15T08:40:27;12.40;;;8.80;;
18399;SDS011;9326;49.468;11.008;2022-11-15T08:42:54;9.10;;;8.07;;
18399;SDS011;9326;49.468;11.008;2022-11-15T08:45:23;8.03;;;7.23;;
18399;SDS011;9326;49.468;11.008;2022-11-15T08:47:50;73.63;;;53.23;;
18399;SDS011;9326;49.468;11.008;2022-11-15T08:50:18;16.60;;;12.07;;
18399;SDS011;9326;49.468;11.008;2022-11-15T08:52:46;11.33;;;7.70;;
18399;SDS011;9326;49.468;11.008;2022-11-15T08:55:14;9.53;;;7.67;;
18399;SDS011;9326;49.468;11.008;2022-11-15T08:57:41;7.87;;;7.07;;
18399;SDS011;9326;49.468;11.008;2022-11-15T09:00:09;10.13;;;7.27;;
18399;SDS011;9326;49.468;11.008;2022-11-15T09:02:37;9.77;;;6.70;;
18399;SDS011;9326;49.468;11.008;2022-11-15T09:05:05;9.07;;;6.50;;
18399;SDS011;9326;49.468;11.008;2022-11-15T09:07:32;7.60;;;6.70;;
18399;SDS011;9326;49.468;11.008;2022-11-15T09:10:03;14.37;;;12.97;;
18399;SDS011;9326;49.468;11.008;2022-11-15T09:12:30;10.37;;;9.23;;
18399;SDS011;9326;49.468;11.008;2022-11-15T09:14:57;10.93;;;9.83;;
18399;SDS011;9326;49.468;11.008;2022-11-15T09:17:24;8.07;;;6.77;;
18399;SDS011;9326;49.468;11.008;2022-11-15T09:19:52;8.57;;;7.70;;
18399;SDS011;9326;49.468;11.008;2022-11-15T09:22:19;7.57;;;6.80;;
18399;SDS011;9326;49.468;11.008;2022-11-15T09:24:46;9.20;;;7.33;;
18399;SDS011;9326;49.468;11.008;2022-11-15T09:27:14;8.47;;;6.73;;
18399;SDS011;9326;49.468;11.008;2022-11-15T09:29:42;7.30;;;6.30;;
18399;SDS011;9326;49.468;11.008;2022-11-15T09:32:09;13.57;;;6.20;;
18399;SDS011;9326;49.468;11.008;2022-11-15T09:34:36;9.67;;;6.50;;
18399;SDS011;9326;49.468;11.008;2022-11-15T09:37:11;6.27;;;5.63;;
18399;SDS011;9326;49.468;11.008;2022-11-15T09:39:39;7.90;;;6.30;;
18399;SDS011;9326;49.468;11.008;2022-11-15T09:42:09;7.00;;;6.00;;
18399;SDS011;9326;49.468;11.008;2022-11-15T09:44:46;8.87;;;6.83;;
18399;SDS011;9326;49.468;11.008;2022-11-15T09:47:22;7.87;;;6.20;;
18399;SDS011;9326;49.468;11.008;2022-11-15T09:49:53;7.37;;;6.33;;
18399;SDS011;9326;49.468;11.008;2022-11-15T09:52:20;9.20;;;6.27;;
18399;SDS011;9326;49.468;11.008;2022-11-15T09:54:48;9.00;;;6.57;;
18399;SDS011;9326;49.468;11.008;2022-11-15T09:57:17;9.87;;;6.00;;
18399;SDS011;9326;49.468;11.008;2022-11-15T09:59:53;8.33;;;6.40;;
18399;SDS011;9326;49.468;11.008;2022-11-15T10:05:12;9.17;;;5.83;;
18399;SDS011;9326;49.468;11.008;2022-11-15T10:07:44;6.23;;;5.37;;
18399;SDS011;9326;49.468;11.008;2022-11-15T10:10:15;7.40;;;5.43;;
18399;SDS011;9326;49.468;11.008;2022-11-15T10:12:44;7.00;;;5.40;;
18399;SDS011;9326;49.468;11.008;2022-11-15T10:15:14;6.80;;;5.03;;
18399;SDS011;9326;49.468;11.008;2022-11-15T10:20:40;10.43;;;7.20;;
18399;SDS011;9326;49.468;11.008;2022-11-15T10:23:10;9.67;;;7.40;;
18399;SDS011;9326;49.468;11.008;2022-11-15T10:25:38;8.17;;;6.80;;
18399;SDS011;9326;49.468;11.008;2022-11-15T10:28:09;9.43;;;6.50;;
18399;SDS011;9326;49.468;11.008;2022-11-15T10:30:39;6.90;;;5.57;;
18399;SDS011;9326;49.468;11.008;2022-11-15T10:33:12;6.47;;;5.27;;
18399;SDS011;9326;49.468;11.008;2022-11-15T10:35:40;6.73;;;4.80;;
18399;SDS011;9326;49.468;11.008;2022-11-15T10:38:09;7.40;;;4.50;;
18399;SDS011;9326;49.468;11.008;2022-11-15T10:40:37;6.27;;;4.50;;
18399;SDS011;9326;49.468;11.008;2022-11-15T10:43:05;6.13;;;4.50;;
18399;SDS011;9326;49.468;11.008;2022-11-15T10:45:33;6.63;;;4.70;;
18399;SDS011;9326;49.468;11.008;2022-11-15T10:48:21;4.37;;;3.50;;
18399;SDS011;9326;49.468;11.008;2022-11-15T10:50:49;5.33;;;3.83;;
18399;SDS011;9326;49.468;11.008;2022-11-15T10:53:19;4.90;;;4.30;;
18399;SDS011;9326;49.468;11.008;2022-11-15T10:55:48;5.93;;;3.90;;
18399;SDS011;9326;49.468;11.008;2022-11-15T10:58:20;4.33;;;3.67;;
18399;SDS011;9326;49.468;11.008;2022-11-15T11:00:48;4.23;;;3.47;;
18399;SDS011;9326;49.468;11.008;2022-11-15T11:03:29;4.00;;;3.67;;
18399;SDS011;9326;49.468;11.008;2022-11-15T11:06:04;4.97;;;3.77;;
18399;SDS011;9326;49.468;11.008;2022-11-15T11:08:32;4.20;;;3.80;;
18399;SDS011;9326;49.468;11.008;2022-11-15T11:10:59;4.47;;;3.87;;
18399;SDS011;9326;49.468;11.008;2022-11-15T11:13:28;4.00;;;3.60;;
18399;SDS011;9326;49.468;11.008;2022-11-15T11:15:56;8.30;;;3.77;;
18399;SDS011;9326;49.468;11.008;2022-11-15T11:18:26;4.63;;;3.67;;
18399;SDS011;9326;49.468;11.008;2022-11-15T11:20:58;4.20;;;3.80;;
18399;SDS011;9326;49.468;11.008;2022-11-15T11:23:36;7.43;;;3.80;;
18399;SDS011;9326;49.468;11.008;2022-11-15T11:26:10;3.83;;;2.90;;
18399;SDS011;9326;49.468;11.008;2022-11-15T11:28:44;3.67;;;3.00;;
18399;SDS011;9326;49.468;11.008;2022-11-15T11:31:20;6.20;;;3.30;;
18399;SDS011;9326;49.468;11.008;2022-11-15T11:33:49;3.50;;;2.83;;
18399;SDS011;9326;49.468;11.008;2022-11-15T11:36:24;3.57;;;3.10;;
18399;SDS011;9326;49.468;11.008;2022-11-15T11:38:56;5.47;;;3.60;;
18399;SDS011;9326;49.468;11.008;2022-11-15T11:41:37;4.20;;;3.23;;
18399;SDS011;9326;49.468;11.008;2022-11-15T11:44:08;4.00;;;2.90;;
18399;SDS011;9326;49.468;11.008;2022-11-15T11:46:43;4.93;;;3.30;;
18399;SDS011;9326;49.468;11.008;2022-11-15T11:49:15;3.10;;;2.47;;
18399;SDS011;9326;49.468;11.008;2022-11-15T11:51:47;3.90;;;2.63;;
18399;SDS011;9326;49.468;11.008;2022-11-15T11:54:18;4.43;;;2.50;;
18399;SDS011;9326;49.468;11.008;2022-11-15T11:56:47;4.10;;;2.33;;
18399;SDS011;9326;49.468;11.008;2022-11-15T11:59:17;2.93;;;2.70;;
18399;SDS011;9326;49.468;11.008;2022-11-15T12:01:46;3.47;;;2.97;;
18399;SDS011;9326;49.468;11.008;2022-11-15T12:04:14;4.53;;;2.77;;
18399;SDS011;9326;49.468;11.008;2022-11-15T12:06:42;4.10;;;2.47;;
18399;SDS011;9326;49.468;11.008;2022-11-15T12:09:14;3.30;;;2.40;;
18399;SDS011;9326;49.468;11.008;2022-11-15T12:11:49;4.87;;;2.77;;
18399;SDS011;9326;49.468;11.008;2022-11-15T12:14:22;5.80;;;2.60;;
18399;SDS011;9326;49.468;11.008;2022-11-15T12:16:51;3.90;;;2.73;;
18399;SDS011;9326;49.468;11.008;2022-11-15T12:19:18;3.50;;;2.80;;
18399;SDS011;9326;49.468;11.008;2022-11-15T12:21:46;6.27;;;3.33;;
18399;SDS011;9326;49.468;11.008;2022-11-15T12:24:16;4.40;;;3.17;;
18399;SDS011;9326;49.468;11.008;2022-11-15T12:26:46;6.60;;;2.87;;
18399;SDS011;9326;49.468;11.008;2022-11-15T12:29:18;3.50;;;2.50;;
18399;SDS011;9326;49.468;11.008;2022-11-15T12:31:52;4.43;;;3.80;;
18399;SDS011;9326;49.468;11.008;2022-11-15T12:34:30;7.47;;;4.80;;
18399;SDS011;9326;49.468;11.008;2022-11-15T12:43:07;4.07;;;2.20;;
18399;SDS011;9326;49.468;11.008;2022-11-15T12:46:09;3.83;;;2.80;;
18399;SDS011;9326;49.468;11.008;2022-11-15T12:49:07;3.60;;;2.30;;
18399;SDS011;9326;49.468;11.008;2022-11-15T12:54:58;2.27;;;2.00;;
18399;SDS011;9326;49.468;11.008;2022-11-15T13:03:18;6.87;;;2.40;;
18399;SDS011;9326;49.468;11.008;2022-11-15T13:08:37;7.73;;;2.80;;
18399;SDS011;9326;49.468;11.008;2022-11-15T13:14:00;4.40;;;2.30;;
18399;SDS011;9326;49.468;11.008;2022-11-15T13:16:27;4.73;;;2.70;;
18399;SDS011;9326;49.468;11.008;2022-11-15T13:18:56;3.50;;;2.70;;
18399;SDS011;9326;49.468;11.008;2022-11-15T13:21:30;3.23;;;2.30;;
18399;SDS011;9326;49.468;11.008;2022-11-15T13:24:16;4.17;;;2.80;;
18399;SDS011;9326;49.468;11.008;2022-11-15T13:26:50;4.00;;;2.60;;
18399;SDS011;9326;49.468;11.008;2022-11-15T13:29:19;3.50;;;2.40;;
18399;SDS011;9326;49.468;11.008;2022-11-15T13:31:48;3.80;;;2.83;;
18399;SDS011;9326;49.468;11.008;2022-11-15T13:34:26;3.60;;;2.90;;
18399;SDS011;9326;49.468;11.008;2022-11-15T13:36:55;16.87;;;10.20;;
18399;SDS011;9326;49.468;11.008;2022-11-15T13:39:26;9.33;;;5.80;;
18399;SDS011;9326;49.468;11.008;2022-11-15T13:41:54;8.83;;;6.13;;
18399;SDS011;9326;49.468;11.008;2022-11-15T13:44:22;29.03;;;23.47;;
18399;SDS011;9326;49.468;11.008;2022-11-15T13:47:00;12.90;;;9.83;;
18399;SDS011;9326;49.468;11.008;2022-11-15T13:49:30;12.93;;;9.83;;
18399;SDS011;9326;49.468;11.008;2022-11-15T13:51:58;12.97;;;10.13;;
18399;SDS011;9326;49.468;11.008;2022-11-15T13:54:27;9.33;;;7.43;;
18399;SDS011;9326;49.468;11.008;2022-11-15T13:56:57;12.53;;;7.07;;
18399;SDS011;9326;49.468;11.008;2022-11-15T13:59:25;10.50;;;7.07;;
18399;SDS011;9326;49.468;11.008;2022-11-15T14:01:52;6.67;;;3.73;;
18399;SDS011;9326;49.468;11.008;2022-11-15T14:04:21;10.33;;;4.77;;
18399;SDS011;9326;49.468;11.008;2022-11-15T14:06:51;8.23;;;5.80;;
18399;SDS011;9326;49.468;11.008;2022-11-15T14:09:25;8.77;;;6.03;;
18399;SDS011;9326;49.468;11.008;2022-11-15T14:11:56;7.13;;;4.93;;
18399;SDS011;9326;49.468;11.008;2022-11-15T14:14:23;6.07;;;4.47;;
18399;SDS011;9326;49.468;11.008;2022-11-15T14:16:52;6.07;;;4.30;;
18399;SDS011;9326;49.468;11.008;2022-11-15T14:19:36;5.50;;;4.07;;
18399;SDS011;9326;49.468;11.008;2022-11-15T14:22:09;9.57;;;4.30;;
18399;SDS011;9326;49.468;11.008;2022-11-15T14:24:36;4.73;;;3.60;;
18399;SDS011;9326;49.468;11.008;2022-11-15T14:27:17;6.87;;;4.00;;
18399;SDS011;9326;49.468;11.008;2022-11-15T14:29:44;4.80;;;3.20;;
18399;SDS011;9326;49.468;11.008;2022-11-15T14:32:12;4.87;;;3.60;;
18399;SDS011;9326;49.468;11.008;2022-11-15T14:34:40;3.90;;;3.30;;
18399;SDS011;9326;49.468;11.008;2022-11-15T14:37:11;6.37;;;3.60;;
18399;SDS011;9326;49.468;11.008;2022-11-15T14:39:43;6.23;;;3.27;;
18399;SDS011;9326;49.468;11.008;2022-11-15T14:42:10;5.13;;;3.40;;
18399;SDS011;9326;49.468;11.008;2022-11-15T14:44:37;4.03;;;3.10;;
18399;SDS011;9326;49.468;11.008;2022-11-15T14:47:05;3.70;;;3.00;;
18399;SDS011;9326;49.468;11.008;2022-11-15T14:49:32;3.00;;;2.70;;
18399;SDS011;9326;49.468;11.008;2022-11-15T14:51:59;3.50;;;3.20;;
18399;SDS011;9326;49.468;11.008;2022-11-15T14:54:27;7.60;;;5.07;;
18399;SDS011;9326;49.468;11.008;2022-11-15T14:56:55;4.60;;;4.20;;
18399;SDS011;9326;49.468;11.008;2022-11-15T14:59:22;6.13;;;4.33;;
18399;SDS011;9326;49.468;11.008;2022-11-15T15:01:49;6.20;;;4.40;;
18399;SDS011;9326;49.468;11.008;2022-11-15T15:04:16;5.33;;;4.63;;
18399;SDS011;9326;49.468;11.008;2022-11-15T15:06:43;6.50;;;5.80;;
18399;SDS011;9326;49.468;11.008;2022-11-15T15:09:10;6.17;;;4.67;;
18399;SDS011;9326;49.468;11.008;2022-11-15T15:14:13;8.07;;;5.77;;
18399;SDS011;9326;49.468;11.008;2022-11-15T15:16:41;17.63;;;10.63;;
18399;SDS011;9326;49.468;11.008;2022-11-15T15:19:08;21.00;;;13.03;;
18399;SDS011;9326;49.468;11.008;2022-11-15T15:21:35;17.20;;;9.20;;
18399;SDS011;9326;49.468;11.008;2022-11-15T15:24:02;14.60;;;8.23;;
18399;SDS011;9326;49.468;11.008;2022-11-15T15:26:30;14.30;;;10.73;;
18399;SDS011;9326;49.468;11.008;2022-11-15T15:28:58;14.30;;;9.30;;
18399;SDS011;9326;49.468;11.008;2022-11-15T15:31:27;13.13;;;9.97;;
18399;SDS011;9326;49.468;11.008;2022-11-15T15:33:54;28.00;;;17.80;;
18399;SDS011;9326;49.468;11.008;2022-11-15T15:36:21;75.40;;;38.70;;
18399;SDS011;9326;49.468;11.008;2022-11-15T15:38:49;38.20;;;19.70;;
18399;SDS011;9326;49.468;11.008;2022-11-15T15:41:16;87.20;;;45.67;;
18399;SDS011;9326;49.468;11.008;2022-11-15T15:43:43;143.80;;;79.80;;
18399;SDS011;9326;49.468;11.008;2022-11-15T15:46:11;156.23;;;80.77;;
18399;SDS011;9326;49.468;11.008;2022-11-15T15:48:40;52.20;;;31.53;;
18399;SDS011;9326;49.468;11.008;2022-11-15T15:51:07;34.40;;;22.63;;
18399;SDS011;9326;49.468;11.008;2022-11-15T15:53:34;19.93;;;13.43;;
18399;SDS011;9326;49.468;11.008;2022-11-15T15:56:02;19.83;;;13.03;;
18399;SDS011;9326;49.468;11.008;2022-11-15T15:58:33;19.90;;;11.20;;
18399;SDS011;9326;49.468;11.008;2022-11-15T16:01:00;24.40;;;16.10;;
18399;SDS011;9326;49.468;11.008;2022-11-15T16:03:27;29.80;;;22.53;;
18399;SDS011;9326;49.468;11.008;2022-11-15T16:05:56;13.97;;;9.73;;
18399;SDS011;9326;49.468;11.008;2022-11-15T16:08:24;13.03;;;7.27;;
18399;SDS011;9326;49.468;11.008;2022-11-15T16:10:54;13.77;;;8.10;;
18399;SDS011;9326;49.468;11.008;2022-11-15T16:13:21;12.33;;;7.63;;
18399;SDS011;9326;49.468;11.008;2022-11-15T16:15:49;13.27;;;7.73;;
18399;SDS011;9326;49.468;11.008;2022-11-15T16:18:17;12.97;;;7.17;;
18399;SDS011;9326;49.468;11.008;2022-11-15T16:20:45;13.43;;;7.30;;
18399;SDS011;9326;49.468;11.008;2022-11-15T16:23:17;13.23;;;7.53;;
18399;SDS011;9326;49.468;11.008;2022-11-15T16:25:49;13.20;;;8.33;;
18399;SDS011;9326;49.468;11.008;2022-11-15T16:28:18;28.50;;;20.87;;
18399;SDS011;9326;49.468;11.008;2022-11-15T16:30:45;32.70;;;24.97;;
18399;SDS011;9326;49.468;11.008;2022-11-15T16:33:13;23.13;;;16.87;;
18399;SDS011;9326;49.468;11.008;2022-11-15T16:35:42;19.47;;;14.03;;
18399;SDS011;9326;49.468;11.008;2022-11-15T16:38:13;13.43;;;9.67;;
18399;SDS011;9326;49.468;11.008;2022-11-15T16:40:46;14.23;;;9.43;;
18399;SDS011;9326;49.468;11.008;2022-11-15T16:43:14;16.53;;;10.30;;
18399;SDS011;9326;49.468;11.008;2022-11-15T16:45:41;13.30;;;8.20;;
18399;SDS011;9326;49.468;11.008;2022-11-15T16:48:10;14.40;;;11.63;;
18399;SDS011;9326;49.468;11.008;2022-11-15T16:50:45;27.50;;;18.27;;
18399;SDS011;9326;49.468;11.008;2022-11-15T16:53:12;31.50;;;21.20;;
18399;SDS011;9326;49.468;11.008;2022-11-15T16:55:40;33.93;;;23.03;;
18399;SDS011;9326;49.468;11.008;2022-11-15T16:58:08;18.13;;;12.57;;
18399;SDS011;9326;49.468;11.008;2022-11-15T17:00:36;13.57;;;9.53;;
18399;SDS011;9326;49.468;11.008;2022-11-15T17:03:03;16.13;;;10.73;;
18399;SDS011;9326;49.468;11.008;2022-11-15T17:05:31;11.27;;;8.17;;
18399;SDS011;9326;49.468;11.008;2022-11-15T17:07:58;11.37;;;8.40;;
18399;SDS011;9326;49.468;11.008;2022-11-15T17:10:25;10.57;;;7.80;;
18399;SDS011;9326;49.468;11.008;2022-11-15T17:12:54;13.63;;;6.87;;
18399;SDS011;9326;49.468;11.008;2022-11-15T17:15:24;11.30;;;7.00;;
18399;SDS011;9326;49.468;11.008;2022-11-15T17:17:52;11.17;;;7.53;;
18399;SDS011;9326;49.468;11.008;2022-11-15T17:20:20;12.87;;;7.73;;
18399;SDS011;9326;49.468;11.008;2022-11-15T17:22:48;10.43;;;7.67;;
18399;SDS011;9326;49.468;11.008;2022-11-15T17:25:15;11.73;;;7.63;;
18399;SDS011;9326;49.468;11.008;2022-11-15T17:27:42;12.87;;;9.20;;
18399;SDS011;9326;49.468;11.008;2022-11-15T17:30:10;10.00;;;7.50;;
18399;SDS011;9326;49.468;11.008;2022-11-15T17:32:40;7.90;;;7.10;;
18399;SDS011;9326;49.468;11.008;2022-11-15T17:35:08;11.43;;;7.33;;
18399;SDS011;9326;49.468;11.008;2022-11-15T17:37:35;10.40;;;7.83;;
18399;SDS011;9326;49.468;11.008;2022-11-15T17:40:03;11.43;;;7.53;;
18399;SDS011;9326;49.468;11.008;2022-11-15T17:42:30;10.93;;;8.03;;
18399;SDS011;9326;49.468;11.008;2022-11-15T17:44:57;12.43;;;7.87;;
18399;SDS011;9326;49.468;11.008;2022-11-15T17:47:24;10.97;;;7.43;;
18399;SDS011;9326;49.468;11.008;2022-11-15T17:49:53;8.83;;;7.07;;
18399;SDS011;9326;49.468;11.008;2022-11-15T17:52:20;10.07;;;8.07;;
18399;SDS011;9326;49.468;11.008;2022-11-15T17:54:48;8.33;;;7.20;;
18399;SDS011;9326;49.468;11.008;2022-11-15T17:57:15;11.27;;;7.50;;
18399;SDS011;9326;49.468;11.008;2022-11-15T17:59:42;10.50;;;7.70;;
18399;SDS011;9326;49.468;11.008;2022-11-15T18:02:09;9.07;;;7.53;;
18399;SDS011;9326;49.468;11.008;2022-11-15T18:04:36;9.83;;;7.97;;
18399;SDS011;9326;49.468;11.008;2022-11-15T18:07:06;12.57;;;8.13;;
18399;SDS011;9326;49.468;11.008;2022-11-15T18:09:35;10.37;;;8.37;;
18399;SDS011;9326;49.468;11.008;2022-11-15T18:12:06;11.10;;;8.53;;
18399;SDS011;9326;49.468;11.008;2022-11-15T18:14:35;12.63;;;8.80;;
18399;SDS011;9326;49.468;11.008;2022-11-15T18:17:03;10.90;;;8.87;;
18399;SDS011;9326;49.468;11.008;2022-11-15T18:19:30;11.83;;;8.73;;
18399;SDS011;9326;49.468;11.008;2022-11-15T18:21:57;10.07;;;8.80;;
18399;SDS011;9326;49.468;11.008;2022-11-15T18:24:27;11.10;;;8.40;;
18399;SDS011;9326;49.468;11.008;2022-11-15T18:26:55;9.87;;;8.03;;
18399;SDS011;9326;49.468;11.008;2022-11-15T18:29:23;10.53;;;8.03;;
18399;SDS011;9326;49.468;11.008;2022-11-15T18:31:51;9.63;;;8.07;;
18399;SDS011;9326;49.468;11.008;2022-11-15T18:34:21;10.90;;;8.93;;
18399;SDS011;9326;49.468;11.008;2022-11-15T18:36:49;11.03;;;9.93;;
18399;SDS011;9326;49.468;11.008;2022-11-15T18:39:19;13.23;;;9.77;;
18399;SDS011;9326;49.468;11.008;2022-11-15T18:41:53;14.33;;;10.13;;
18399;SDS011;9326;49.468;11.008;2022-11-15T18:44:28;12.27;;;10.10;;
18399;SDS011;9326;49.468;11.008;2022-11-15T18:46:55;13.77;;;9.20;;
18399;SDS011;9326;49.468;11.008;2022-11-15T18:49:23;15.67;;;10.10;;
18399;SDS011;9326;49.468;11.008;2022-11-15T18:51:50;13.30;;;10.60;;
18399;SDS011;9326;49.468;11.008;2022-11-15T18:54:18;17.93;;;14.20;;
18399;SDS011;9326;49.468;11.008;2022-11-15T18:56:45;19.73;;;14.87;;
18399;SDS011;9326;49.468;11.008;2022-11-15T18:59:14;19.20;;;13.50;;
18399;SDS011;9326;49.468;11.008;2022-11-15T19:04:30;14.07;;;10.67;;
18399;SDS011;9326;49.468;11.008;2022-11-15T19:06:59;14.03;;;12.63;;
18399;SDS011;9326;49.468;11.008;2022-11-15T19:09:27;23.60;;;21.20;;
18399;SDS011;9326;49.468;11.008;2022-11-15T19:11:56;21.50;;;18.30;;
18399;SDS011;9326;49.468;11.008;2022-11-15T19:14:25;18.67;;;15.83;;
18399;SDS011;9326;49.468;11.008;2022-11-15T19:16:53;17.70;;;14.93;;
18399;SDS011;9326;49.468;11.008;2022-11-15T19:19:21;13.83;;;11.20;;
18399;SDS011;9326;49.468;11.008;2022-11-15T19:21:48;13.27;;;10.30;;
18399;SDS011;9326;49.468;11.008;2022-11-15T19:24:15;16.30;;;13.03;;
18399;SDS011;9326;49.468;11.008;2022-11-15T19:26:43;24.67;;;19.33;;
18399;SDS011;9326;49.468;11.008;2022-11-15T19:29:12;19.73;;;14.80;;
18399;SDS011;9326;49.468;11.008;2022-11-15T19:31:43;17.00;;;13.97;;
18399;SDS011;9326;49.468;11.008;2022-11-15T19:34:13;19.23;;;13.83;;
18399;SDS011;9326;49.468;11.008;2022-11-15T19:36:41;18.23;;;13.50;;
18399;SDS011;9326;49.468;11.008;2022-11-15T19:39:09;14.73;;;12.60;;
18399;SDS011;9326;49.468;11.008;2022-11-15T19:47:41;38.70;;;34.60;;
18399;SDS011;9326;49.468;11.008;2022-11-15T19:50:09;19.83;;;17.07;;
18399;SDS011;9326;49.468;11.008;2022-11-15T19:52:36;16.33;;;14.63;;
18399;SDS011;9326;49.468;11.008;2022-11-15T19:55:03;14.47;;;12.97;;
18399;SDS011;9326;49.468;11.008;2022-11-15T19:57:30;14.77;;;13.10;;
18399;SDS011;9326;49.468;11.008;2022-11-15T19:59:58;14.93;;;13.20;;
18399;SDS011;9326;49.468;11.008;2022-11-15T20:02:25;15.07;;;13.13;;
18399;SDS011;9326;49.468;11.008;2022-11-15T20:04:53;17.40;;;13.67;;
18399;SDS011;9326;49.468;11.008;2022-11-15T20:07:23;14.30;;;12.30;;
18399;SDS011;9326;49.468;11.008;2022-11-15T20:09:50;15.10;;;12.07;;
18399;SDS011;9326;49.468;11.008;2022-11-15T20:12:18;15.90;;;12.07;;
18399;SDS011;9326;49.468;11.008;2022-11-15T20:14:45;17.30;;;12.83;;
18399;SDS011;9326;49.468;11.008;2022-11-15T20:17:13;14.43;;;11.27;;
18399;SDS011;9326;49.468;11.008;2022-11-15T20:19:40;14.97;;;11.83;;
18399;SDS011;9326;49.468;11.008;2022-11-15T20:22:09;12.53;;;10.97;;
18399;SDS011;9326;49.468;11.008;2022-11-15T20:24:36;25.07;;;16.30;;
18399;SDS011;9326;49.468;11.008;2022-11-15T20:27:03;17.70;;;13.60;;